createdAt,value
2018-03-26T00:00:04.340Z,51.23
2018-03-26T00:02:32.242Z,59.10
2018-03-26T00:05:00.152Z,58.33
2018-03-26T00:07:34.139Z,56.77
2018-03-26T00:10:02.068Z,61.53
2018-03-26T00:12:29.967Z,56.43
2018-03-26T00:14:57.897Z,59.53
2018-03-26T00:17:25.793Z,58.27
2018-03-26T00:19:53.696Z,60.17
2018-03-26T00:22:21.615Z,63.93
2018-03-26T00:24:49.511Z,64.43
2018-03-26T00:27:17.416Z,63.87
2018-03-26T00:29:45.319Z,62.63
2018-03-26T00:32:13.220Z,62.70
2018-03-26T00:34:41.143Z,65.00
2018-03-26T00:37:09.060Z,59.17
2018-03-26T00:39:36.990Z,64.90
2018-03-26T00:42:04.939Z,65.10
2018-03-26T00:44:32.845Z,65.70
2018-03-26T00:47:00.751Z,59.00
2018-03-26T00:49:28.686Z,64.77
2018-03-26T00:51:56.574Z,62.87
2018-03-26T00:54:24.506Z,65.37
2018-03-26T00:56:52.611Z,67.97
2018-03-26T00:59:20.495Z,66.70
2018-03-26T01:01:48.415Z,68.63
2018-03-26T01:04:16.330Z,65.90
2018-03-26T01:06:44.228Z,58.33
2018-03-26T01:09:12.144Z,57.33
2018-03-26T01:11:40.094Z,56.60
2018-03-26T01:14:08.006Z,57.60
2018-03-26T01:16:35.910Z,58.30
2018-03-26T01:19:03.831Z,55.70
2018-03-26T01:21:31.790Z,58.90
2018-03-26T01:23:59.715Z,60.57
2018-03-26T01:26:27.701Z,59.10
2018-03-26T01:28:55.602Z,60.13
2018-03-26T01:31:23.495Z,60.63
2018-03-26T01:33:51.389Z,52.50
2018-03-26T01:36:19.301Z,51.20
2018-03-26T01:38:47.207Z,50.70
2018-03-26T01:41:15.111Z,47.40
2018-03-26T01:43:43.054Z,46.23
2018-03-26T01:46:10.966Z,49.30
2018-03-26T01:48:38.912Z,49.90
2018-03-26T01:51:07.067Z,51.10
2018-03-26T01:53:34.995Z,54.17
2018-03-26T01:56:02.914Z,51.20
2018-03-26T01:58:30.825Z,50.00
2018-03-26T02:00:58.719Z,51.60
2018-03-26T02:03:26.625Z,47.97
2018-03-26T02:05:54.549Z,47.60
2018-03-26T02:08:22.465Z,44.43
2018-03-26T02:10:50.401Z,42.10
2018-03-26T02:13:18.319Z,44.03
2018-03-26T02:15:46.239Z,45.73
2018-03-26T02:18:14.395Z,43.60
2018-03-26T02:20:42.323Z,42.00
2018-03-26T02:23:10.243Z,42.10
2018-03-26T02:25:38.147Z,42.23
2018-03-26T02:28:06.072Z,41.07
2018-03-26T02:30:33.971Z,39.30
2018-03-26T02:33:01.926Z,39.57
2018-03-26T02:35:29.860Z,37.50
2018-03-26T02:37:57.831Z,37.00
2018-03-26T02:40:25.736Z,38.77
2018-03-26T02:42:53.636Z,39.90
2018-03-26T02:45:21.564Z,38.30
2018-03-26T02:47:49.475Z,39.00
2018-03-26T02:50:17.389Z,37.27
2018-03-26T02:52:45.475Z,36.00
2018-03-26T02:55:13.376Z,35.80
2018-03-26T02:57:41.301Z,35.20
2018-03-26T03:00:09.216Z,36.53
2018-03-26T03:02:37.124Z,43.27
2018-03-26T03:05:05.308Z,43.43
2018-03-26T03:07:33.260Z,44.10
2018-03-26T03:10:01.240Z,43.67
2018-03-26T03:12:29.180Z,38.10
2018-03-26T03:14:57.096Z,36.73
2018-03-26T03:17:24.992Z,36.23
2018-03-26T03:22:30.048Z,34.43
2018-03-26T03:24:57.951Z,34.00
2018-03-26T03:27:25.911Z,31.57
2018-03-26T03:29:53.848Z,32.40
2018-03-26T03:32:21.759Z,31.70
2018-03-26T03:34:49.683Z,31.97
2018-03-26T03:37:17.599Z,26.67
2018-03-26T03:39:45.513Z,30.60
2018-03-26T03:42:13.445Z,27.10
2018-03-26T03:44:41.378Z,27.13
2018-03-26T03:47:09.296Z,28.37
2018-03-26T03:49:37.207Z,26.83
2018-03-26T03:52:05.123Z,26.80
2018-03-26T03:54:33.422Z,31.77
2018-03-26T03:57:01.456Z,31.27
2018-03-26T03:59:29.346Z,32.97
2018-03-26T04:01:57.296Z,30.37
2018-03-26T04:04:25.340Z,30.83
2018-03-26T04:06:53.267Z,28.87
2018-03-26T04:09:21.163Z,29.00
2018-03-26T04:11:49.091Z,26.40
2018-03-26T04:14:17.027Z,25.83
2018-03-26T04:16:44.981Z,25.08
2018-03-26T04:19:12.890Z,24.00
2018-03-26T04:21:40.830Z,22.90
2018-03-26T04:24:08.752Z,22.67
2018-03-26T04:26:36.687Z,25.70
2018-03-26T04:29:04.611Z,23.73
2018-03-26T04:31:32.527Z,25.73
2018-03-26T04:34:00.471Z,23.87
2018-03-26T04:36:29.064Z,22.53
2018-03-26T04:38:56.977Z,19.00
2018-03-26T04:41:24.936Z,20.30
2018-03-26T04:43:52.874Z,19.08
2018-03-26T04:46:20.787Z,18.98
2018-03-26T04:48:48.687Z,18.95
2018-03-26T04:51:16.644Z,21.23
2018-03-26T04:53:44.563Z,20.30
2018-03-26T04:56:12.655Z,22.50
2018-03-26T04:58:40.556Z,19.30
2018-03-26T05:01:08.471Z,20.60
2018-03-26T05:03:38.047Z,18.00
2018-03-26T05:06:06.003Z,18.05
2018-03-26T05:08:33.940Z,17.93
2018-03-26T05:11:01.878Z,17.42
2018-03-26T05:13:29.799Z,16.23
2018-03-26T05:15:57.735Z,15.93
2018-03-26T05:18:25.716Z,15.63
2018-03-26T05:20:53.655Z,12.75
2018-03-26T05:23:21.579Z,12.40
2018-03-26T05:25:49.493Z,13.60
2018-03-26T05:28:17.422Z,11.73
2018-03-26T05:30:45.340Z,11.60
2018-03-26T05:33:13.272Z,11.70
2018-03-26T05:35:41.352Z,13.38
2018-03-26T05:38:09.246Z,11.02
2018-03-26T05:40:37.138Z,10.18
2018-03-26T05:43:05.068Z,9.90
2018-03-26T05:45:33.652Z,9.52
2018-03-26T05:48:01.566Z,9.70
2018-03-26T05:50:29.485Z,9.57
2018-03-26T05:52:57.415Z,9.07
2018-03-26T05:55:25.339Z,9.93
2018-03-26T05:57:53.737Z,8.70
2018-03-26T06:00:21.659Z,9.23
2018-03-26T06:02:49.589Z,10.05
2018-03-26T06:05:17.536Z,8.90
2018-03-26T06:07:45.468Z,8.60
2018-03-26T06:10:13.422Z,9.05
2018-03-26T06:12:41.479Z,8.38
2018-03-26T06:15:09.431Z,8.95
2018-03-26T06:17:37.347Z,7.80
2018-03-26T06:20:05.319Z,8.40
2018-03-26T06:22:33.247Z,8.38
2018-03-26T06:25:01.148Z,8.95
2018-03-26T06:27:29.935Z,8.45
2018-03-26T06:29:57.864Z,8.70
2018-03-26T06:32:25.800Z,8.27
2018-03-26T06:34:54.064Z,8.00
2018-03-26T06:37:40.923Z,8.55
2018-03-26T06:40:08.858Z,8.27
2018-03-26T06:42:36.796Z,6.12
2018-03-26T06:45:04.707Z,7.30
2018-03-26T06:47:32.764Z,7.22
2018-03-26T06:50:00.711Z,7.65
2018-03-26T06:52:28.672Z,7.45
2018-03-26T06:54:56.623Z,7.32
2018-03-26T06:57:24.540Z,6.72
2018-03-26T06:59:52.471Z,7.80
2018-03-26T07:02:20.657Z,7.62
2018-03-26T07:04:48.564Z,7.00
2018-03-26T07:07:16.491Z,6.65
2018-03-26T07:09:44.460Z,7.25
2018-03-26T07:12:12.416Z,6.45
2018-03-26T07:14:40.316Z,8.25
2018-03-26T07:17:08.239Z,7.57
2018-03-26T07:19:36.159Z,7.05
2018-03-26T07:22:04.079Z,6.72
2018-03-26T07:24:32.000Z,6.80
2018-03-26T07:26:59.927Z,7.45
2018-03-26T07:29:27.866Z,6.18
2018-03-26T07:31:55.891Z,6.93
2018-03-26T07:34:23.809Z,6.50
2018-03-26T07:36:51.781Z,7.10
2018-03-26T07:39:19.724Z,5.90
2018-03-26T07:41:47.708Z,6.10
2018-03-26T07:44:15.640Z,5.82
2018-03-26T07:46:43.596Z,5.97
2018-03-26T07:49:11.499Z,6.35
2018-03-26T07:51:39.428Z,6.70
2018-03-26T07:54:07.363Z,6.32
2018-03-26T07:56:35.272Z,5.85
2018-03-26T07:59:03.177Z,6.57
2018-03-26T08:01:31.424Z,7.05
2018-03-26T08:03:59.323Z,6.22
2018-03-26T08:06:27.258Z,6.20
2018-03-26T08:08:55.211Z,6.32
2018-03-26T08:11:23.169Z,6.90
2018-03-26T08:13:51.114Z,7.80
2018-03-26T08:16:19.083Z,7.18
2018-03-26T08:18:47.036Z,6.43
2018-03-26T08:21:15.015Z,6.50
2018-03-26T08:23:42.978Z,6.32
2018-03-26T08:26:11.162Z,7.00
2018-03-26T08:28:39.064Z,7.60
2018-03-26T08:31:07.016Z,7.05
2018-03-26T08:33:35.047Z,6.90
2018-03-26T08:36:02.949Z,6.40
2018-03-26T08:38:30.936Z,6.65
2018-03-26T08:40:58.886Z,6.32
2018-03-26T08:43:26.829Z,7.40
2018-03-26T08:45:54.765Z,8.57
2018-03-26T08:48:22.695Z,7.85
2018-03-26T08:50:50.627Z,7.72
2018-03-26T08:53:18.559Z,7.87
2018-03-26T08:55:46.505Z,9.32
2018-03-26T08:58:14.409Z,12.02
2018-03-26T09:00:42.319Z,9.93
2018-03-26T09:03:10.291Z,10.43
2018-03-26T09:05:38.191Z,12.95
2018-03-26T09:08:06.102Z,13.50
2018-03-26T09:10:34.139Z,12.23
2018-03-26T09:13:02.059Z,13.25
2018-03-26T09:15:29.983Z,12.82
2018-03-26T09:17:57.897Z,12.95
2018-03-26T09:20:25.803Z,13.20
2018-03-26T09:22:53.751Z,16.02
2018-03-26T09:25:21.656Z,16.87
2018-03-26T09:27:49.567Z,13.55
2018-03-26T09:30:17.507Z,11.68
2018-03-26T09:32:45.434Z,11.30
2018-03-26T09:35:13.360Z,12.37
2018-03-26T09:37:41.321Z,12.40
2018-03-26T09:40:09.229Z,15.75
2018-03-26T09:42:37.186Z,17.45
2018-03-26T09:45:05.112Z,18.80
2018-03-26T09:47:33.020Z,15.05
2018-03-26T09:50:00.952Z,15.23
2018-03-26T09:52:29.159Z,13.35
2018-03-26T09:54:57.079Z,14.90
2018-03-26T09:57:25.000Z,16.90
2018-03-26T09:59:52.952Z,17.25
2018-03-26T10:02:20.883Z,17.85
2018-03-26T10:04:49.123Z,16.15
2018-03-26T10:07:17.043Z,15.55
2018-03-26T10:09:44.953Z,16.05
2018-03-26T10:12:12.903Z,15.87
2018-03-26T10:14:40.981Z,16.80
2018-03-26T10:17:08.914Z,15.70
2018-03-26T10:19:36.823Z,18.25
2018-03-26T10:22:05.087Z,17.37
2018-03-26T10:24:32.999Z,14.98
2018-03-26T10:27:00.924Z,17.02
2018-03-26T10:29:28.840Z,15.70
2018-03-26T10:31:56.747Z,14.40
2018-03-26T10:34:24.692Z,15.20
2018-03-26T10:36:52.620Z,12.32
2018-03-26T10:39:20.522Z,11.45
2018-03-26T10:41:48.615Z,12.37
2018-03-26T10:44:16.580Z,12.80
2018-03-26T10:46:44.527Z,14.52
2018-03-26T10:49:12.455Z,14.70
2018-03-26T10:51:40.379Z,15.33
2018-03-26T10:54:15.236Z,15.00
2018-03-26T10:56:43.174Z,15.50
2018-03-26T10:59:11.076Z,13.50
2018-03-26T11:01:39.327Z,14.25
2018-03-26T11:04:07.255Z,14.17
2018-03-26T11:09:12.151Z,14.90
2018-03-26T11:11:40.048Z,13.57
2018-03-26T11:14:07.973Z,11.20
2018-03-26T11:16:36.189Z,10.57
2018-03-26T11:19:04.087Z,11.87
2018-03-26T11:21:32.027Z,11.70
2018-03-26T11:23:59.983Z,10.73
2018-03-26T11:26:27.929Z,10.40
2018-03-26T11:28:55.875Z,9.70
2018-03-26T11:31:23.831Z,9.60
2018-03-26T11:33:51.739Z,7.87
2018-03-26T11:36:19.689Z,7.43
2018-03-26T11:38:47.545Z,8.27
2018-03-26T11:41:15.497Z,7.47
2018-03-26T11:43:43.471Z,8.00
2018-03-26T11:46:11.404Z,7.20
2018-03-26T11:48:39.303Z,6.50
2018-03-26T11:51:07.208Z,6.77
2018-03-26T11:53:35.151Z,6.37
2018-03-26T11:56:03.257Z,7.57
2018-03-26T11:58:31.166Z,7.50
2018-03-26T12:00:59.075Z,7.53
2018-03-26T12:03:27.024Z,7.37
2018-03-26T12:05:54.931Z,7.40
2018-03-26T12:08:22.864Z,6.47
2018-03-26T12:10:59.703Z,7.90
2018-03-26T12:13:28.083Z,7.50
2018-03-26T12:15:56.273Z,8.47
2018-03-26T12:18:29.056Z,7.10
2018-03-26T12:21:01.865Z,7.30
2018-03-26T12:23:36.348Z,8.40
2018-03-26T12:26:04.280Z,7.73
2018-03-26T12:28:38.611Z,7.90
2018-03-26T12:31:06.587Z,8.40
2018-03-26T12:33:40.585Z,9.70
2018-03-26T12:36:08.742Z,7.40
2018-03-26T12:38:36.777Z,8.23
2018-03-26T12:41:04.671Z,8.60
2018-03-26T12:43:32.661Z,7.27
2018-03-26T12:46:07.047Z,8.20
2018-03-26T12:48:35.393Z,9.50
2018-03-26T12:51:09.950Z,8.70
2018-03-26T12:53:38.127Z,8.80
2018-03-26T12:56:06.078Z,8.20
2018-03-26T12:58:40.137Z,7.70
2018-03-26T13:01:14.160Z,7.60
2018-03-26T13:03:42.396Z,8.77
2018-03-26T13:06:10.308Z,7.40
2018-03-26T13:08:38.251Z,7.47
2018-03-26T13:11:06.207Z,7.70
2018-03-26T13:13:34.135Z,7.53
2018-03-26T13:16:02.619Z,7.03
2018-03-26T13:18:30.595Z,7.07
2018-03-26T13:20:58.517Z,7.10
2018-03-26T13:23:26.647Z,8.27
2018-03-26T13:25:54.548Z,7.40
2018-03-26T13:28:22.475Z,7.83
2018-03-26T13:30:50.399Z,6.53
2018-03-26T13:33:18.299Z,6.77
2018-03-26T13:35:46.212Z,5.63
2018-03-26T13:38:14.388Z,6.47
2018-03-26T13:40:42.323Z,5.77
2018-03-26T13:43:10.269Z,6.50
2018-03-26T13:45:38.208Z,5.93
2018-03-26T13:48:06.207Z,7.13
2018-03-26T13:50:34.131Z,5.83
2018-03-26T13:53:02.066Z,6.23
2018-03-26T13:55:29.991Z,7.00
2018-03-26T13:57:57.913Z,6.70
2018-03-26T14:00:25.815Z,6.33
2018-03-26T14:02:53.720Z,6.40
2018-03-26T14:05:21.643Z,7.27
2018-03-26T14:07:49.555Z,6.83
2018-03-26T14:10:24.111Z,6.13
2018-03-26T14:12:58.128Z,6.27
2018-03-26T14:15:32.035Z,6.50
2018-03-26T14:18:00.834Z,6.90
2018-03-26T14:20:28.776Z,6.70
2018-03-26T14:22:56.733Z,7.63
2018-03-26T14:25:24.667Z,6.40
2018-03-26T14:27:52.596Z,8.07
2018-03-26T14:30:20.512Z,9.43
2018-03-26T14:32:48.407Z,9.13
2018-03-26T14:35:31.265Z,8.07
2018-03-26T14:37:59.191Z,9.17
2018-03-26T14:40:27.114Z,8.77
2018-03-26T14:42:55.015Z,8.97
2018-03-26T14:45:22.971Z,9.00
2018-03-26T14:47:50.860Z,9.13
2018-03-26T14:50:18.742Z,9.20
2018-03-26T14:52:53.645Z,10.90
2018-03-26T14:55:21.563Z,10.07
2018-03-26T14:57:49.459Z,8.93
2018-03-26T15:00:17.451Z,7.87
2018-03-26T15:02:45.377Z,6.53
2018-03-26T15:05:13.278Z,5.50
2018-03-26T15:07:41.201Z,5.00
2018-03-26T15:10:09.108Z,5.00
2018-03-26T15:12:37.229Z,4.40
2018-03-26T15:15:05.140Z,4.80
2018-03-26T15:17:33.050Z,4.20
2018-03-26T15:20:00.971Z,5.47
2018-03-26T15:22:28.855Z,5.10
2018-03-26T15:24:56.784Z,5.10
2018-03-26T15:27:24.764Z,4.80
2018-03-26T15:29:52.623Z,4.80
2018-03-26T15:32:20.539Z,4.83
2018-03-26T15:34:48.453Z,4.17
2018-03-26T15:37:16.387Z,5.17
2018-03-26T15:39:44.355Z,5.07
2018-03-26T15:42:12.282Z,4.73
2018-03-26T15:44:40.187Z,5.33
2018-03-26T15:47:08.076Z,4.93
2018-03-26T15:49:35.975Z,5.20
2018-03-26T15:52:03.893Z,4.73
2018-03-26T15:54:31.807Z,5.40
2018-03-26T15:56:59.720Z,6.23
2018-03-26T15:59:27.623Z,5.50
2018-03-26T16:01:55.467Z,5.80
2018-03-26T16:04:23.403Z,5.80
2018-03-26T16:06:51.302Z,6.67
2018-03-26T16:09:19.204Z,6.50
2018-03-26T16:11:47.126Z,5.70
2018-03-26T16:14:15.252Z,4.67
2018-03-26T16:16:43.210Z,6.27
2018-03-26T16:19:11.124Z,5.83
2018-03-26T16:21:39.051Z,5.40
2018-03-26T16:24:06.951Z,6.23
2018-03-26T16:26:34.880Z,6.60
2018-03-26T16:29:02.804Z,5.90
2018-03-26T16:31:30.727Z,4.80
2018-03-26T16:33:58.651Z,4.13
2018-03-26T16:36:26.549Z,4.50
2018-03-26T16:38:54.466Z,4.50
2018-03-26T16:41:28.435Z,5.20
2018-03-26T16:43:56.387Z,5.27
2018-03-26T16:46:24.300Z,7.87
2018-03-26T16:48:52.247Z,4.80
2018-03-26T16:51:20.173Z,5.20
2018-03-26T16:53:48.131Z,4.90
2018-03-26T16:56:16.054Z,4.80
2018-03-26T16:58:43.999Z,4.20
2018-03-26T17:01:11.920Z,5.00
2018-03-26T17:03:39.867Z,5.60
2018-03-26T17:06:07.765Z,4.50
2018-03-26T17:08:35.687Z,4.50
2018-03-26T17:11:03.588Z,6.07
2018-03-26T17:13:31.642Z,4.17
2018-03-26T17:15:59.828Z,4.70
2018-03-26T17:18:27.735Z,4.73
2018-03-26T17:20:55.668Z,4.30
2018-03-26T17:23:23.579Z,4.40
2018-03-26T17:25:51.479Z,4.50
2018-03-26T17:28:19.576Z,4.80
2018-03-26T17:30:47.489Z,4.80
2018-03-26T17:33:15.392Z,4.17
2018-03-26T17:35:43.480Z,4.57
2018-03-26T17:38:11.385Z,4.73
2018-03-26T17:40:39.327Z,4.70
2018-03-26T17:43:07.224Z,4.13
2018-03-26T17:45:35.124Z,6.33
2018-03-26T17:48:03.047Z,5.53
2018-03-26T17:50:30.963Z,5.27
2018-03-26T17:52:58.868Z,4.57
2018-03-26T17:55:26.791Z,5.77
2018-03-26T17:57:54.711Z,4.07
2018-03-26T18:00:22.651Z,4.23
2018-03-26T18:02:50.548Z,4.30
2018-03-26T18:05:18.479Z,4.90
2018-03-26T18:07:47.647Z,5.53
2018-03-26T18:10:15.697Z,4.57
2018-03-26T18:12:43.769Z,5.50
2018-03-26T18:15:11.760Z,5.50
2018-03-26T18:17:40.334Z,4.67
2018-03-26T18:20:08.585Z,5.37
2018-03-26T18:22:36.565Z,5.50
2018-03-26T18:25:04.628Z,6.27
2018-03-26T18:27:32.690Z,7.30
2018-03-26T18:30:00.678Z,7.00
2018-03-26T18:32:28.597Z,6.23
2018-03-26T18:34:56.547Z,6.80
2018-03-26T18:37:24.450Z,6.30
2018-03-26T18:39:52.342Z,7.00
2018-03-26T18:42:20.519Z,7.10
2018-03-26T18:44:48.418Z,6.87
2018-03-26T18:47:16.345Z,7.60
2018-03-26T18:49:44.275Z,7.30
2018-03-26T18:52:12.213Z,6.13
2018-03-26T18:54:41.262Z,6.70
2018-03-26T18:57:09.602Z,6.53
2018-03-26T18:59:37.467Z,7.43
2018-03-26T19:02:05.392Z,7.10
2018-03-26T19:04:33.744Z,6.87
2018-03-26T19:07:02.075Z,7.50
2018-03-26T19:09:30.183Z,7.37
2018-03-26T19:11:58.418Z,7.80
2018-03-26T19:14:26.402Z,7.50
2018-03-26T19:16:54.351Z,9.30
2018-03-26T19:19:22.770Z,8.43
2018-03-26T19:21:50.703Z,8.83
2018-03-26T19:24:19.498Z,9.07
2018-03-26T19:26:50.061Z,7.90
2018-03-26T19:29:18.983Z,9.20
2018-03-26T19:31:47.552Z,8.80
2018-03-26T19:34:15.575Z,9.47
2018-03-26T19:36:44.796Z,9.20
2018-03-26T19:39:12.990Z,10.03
2018-03-26T19:41:40.937Z,12.30
2018-03-26T19:44:08.879Z,11.57
2018-03-26T19:46:36.788Z,11.43
2018-03-26T19:49:05.004Z,11.40
2018-03-26T19:51:32.905Z,11.83
2018-03-26T19:54:00.812Z,11.27
2018-03-26T19:56:28.738Z,11.30
2018-03-26T19:58:56.625Z,12.07
2018-03-26T20:01:24.543Z,12.20
2018-03-26T20:03:59.739Z,12.25
2018-03-26T20:06:27.631Z,12.60
2018-03-26T20:08:55.521Z,13.30
2018-03-26T20:11:23.432Z,15.60
2018-03-26T20:13:51.386Z,15.30
2018-03-26T20:16:19.316Z,14.33
2018-03-26T20:18:47.248Z,14.20
2018-03-26T20:21:15.392Z,15.60
2018-03-26T20:23:43.307Z,14.40
2018-03-26T20:26:11.213Z,15.00
2018-03-26T20:28:39.175Z,14.60
2018-03-26T20:31:07.100Z,13.93
2018-03-26T20:33:35.017Z,16.90
2018-03-26T20:36:02.952Z,15.03
2018-03-26T20:38:30.946Z,16.30
2018-03-26T20:40:58.836Z,17.10
2018-03-26T20:43:26.779Z,16.15
2018-03-26T20:45:54.688Z,15.60
2018-03-26T20:48:22.606Z,16.73
2018-03-26T20:50:50.547Z,15.30
2018-03-26T20:53:18.499Z,16.03
2018-03-26T20:55:46.419Z,15.43
2018-03-26T20:58:14.355Z,15.23
2018-03-26T21:00:42.260Z,14.90
2018-03-26T21:03:10.175Z,14.40
2018-03-26T21:05:38.101Z,16.10
2018-03-26T21:08:06.026Z,14.20
2018-03-26T21:10:33.952Z,14.80
2018-03-26T21:13:01.895Z,14.70
2018-03-26T21:15:29.810Z,14.07
2018-03-26T21:17:57.716Z,15.00
2018-03-26T21:20:25.627Z,14.53
2018-03-26T21:22:53.855Z,14.43
2018-03-26T21:25:21.751Z,13.80
2018-03-26T21:27:49.669Z,13.60
2018-03-26T21:30:17.570Z,14.10
2018-03-26T21:32:45.470Z,14.00
2018-03-26T21:35:13.392Z,14.05
2018-03-26T21:37:41.335Z,14.30
2018-03-26T21:40:09.249Z,13.52
2018-03-26T21:42:37.168Z,17.63
2018-03-26T21:45:05.102Z,15.48
2018-03-26T21:47:32.988Z,13.27
2018-03-26T21:50:00.922Z,14.60
2018-03-26T21:52:28.881Z,13.97
2018-03-26T21:54:56.772Z,14.27
2018-03-26T21:57:24.699Z,14.00
2018-03-26T21:59:52.612Z,15.20
2018-03-26T22:02:20.498Z,14.60
2018-03-26T22:04:48.415Z,14.93
2018-03-26T22:07:16.339Z,17.48
2018-03-26T22:09:44.259Z,16.55
2018-03-26T22:12:12.178Z,16.20
2018-03-26T22:14:40.095Z,17.55
2018-03-26T22:17:08.015Z,17.53
2018-03-26T22:19:35.967Z,17.87
2018-03-26T22:22:04.061Z,17.87
2018-03-26T22:24:32.010Z,18.60
2018-03-26T22:26:59.968Z,18.73
2018-03-26T22:29:27.867Z,17.40
2018-03-26T22:31:55.763Z,18.62
2018-03-26T22:34:23.668Z,18.62
2018-03-26T22:36:51.599Z,23.65
2018-03-26T22:39:19.509Z,19.73
2018-03-26T22:41:47.409Z,19.17
2018-03-26T22:44:15.499Z,20.65
2018-03-26T22:46:43.448Z,18.75
2018-03-26T22:49:11.354Z,19.80
2018-03-26T22:51:39.292Z,19.35
2018-03-26T22:54:07.195Z,19.57
2018-03-26T22:56:35.103Z,19.77
2018-03-26T22:59:03.032Z,20.00
2018-03-26T23:01:30.931Z,20.92
2018-03-26T23:03:58.848Z,20.40
2018-03-26T23:06:26.759Z,19.07
2018-03-26T23:08:54.697Z,19.77
2018-03-26T23:11:22.591Z,20.87
2018-03-26T23:13:50.538Z,20.10
2018-03-26T23:16:18.447Z,18.83
2018-03-26T23:18:46.359Z,20.65
2018-03-26T23:21:14.391Z,17.77
2018-03-26T23:23:42.328Z,20.70
2018-03-26T23:26:10.568Z,18.80
2018-03-26T23:28:38.507Z,20.62
2018-03-26T23:31:06.405Z,22.13
2018-03-26T23:33:34.333Z,20.23
2018-03-26T23:36:02.240Z,21.17
2018-03-26T23:38:30.171Z,23.70
2018-03-26T23:40:58.149Z,20.60
2018-03-26T23:43:26.097Z,21.10
2018-03-26T23:45:54.014Z,22.95
2018-03-26T23:48:21.929Z,21.67
2018-03-26T23:50:49.860Z,22.05
2018-03-26T23:53:17.763Z,22.27
2018-03-26T23:55:45.671Z,22.85
2018-03-26T23:58:13.619Z,21.92
